x

Shumagin Islands - 85nm South Of Sand Point, Ak (46075) Wave Buoy

9:50 - Mon 29th Dec 2014 All times are UTC.

  • Sig Wave height 13.8ft
  • Peak Period 11s
  • Average Period 9s
  • Wind
    7mph, 13mph gusts
  • Sea Temp 44°f
  • Air Temp 42°f
  • Sea Pressure 998.3mb

More Historic Weather Station data

Upgrade to MSW Pro to gain access to the past 30 days of data for over 8000 Wavebouys and Weather Stations around the globe.

Join Pro

Comparision Forecast

View Surf forecast
   
lun. 12/29 9:50 14ft 11s 9s 7 13 mph 998.3mb 44f 42f
8:50 14ft 12s 9s 11 18 mph 998.2mb 44f 41f
7:50 14ft 11s 9s 9 11 mph 998.3mb 44f 42f
6:50 13ft 11s 9s 9 16 mph 998.4mb 44f 42f
5:50 15ft 11s 10s 9 16 mph 998.1mb 44f 42f
4:50 15ft 12s 10s 4 9 mph 997.8mb 44f 42f
3:50 13.5ft 11s 9s 9 13 mph 997.5mb 44f 41f
2:50 13ft 12s 9s 13 16 mph 997.7mb 44f 41f
1:50 12.5ft 11s 9s 18 22 mph 997.9mb 44f 41f
12:50 12ft 11s 8s 18 22 mph 997.1mb 44f 42f
dim. 12/28 11:50 13ft 11s 8s 18 22 mph 997mb 44f 42f
10:50 14ft 11s 9s 18 25 mph 997.4mb 44f 42f
9:50 14ft 11s 8s 11 16 mph 998.3mb 44f 42f
8:50 13ft 12s 8s 13 18 mph 998.9mb 44f 42f
7:50 14ft 11s 8s 11 13 mph 999.4mb 44f 43f
6:50 14.5ft 11s 8s 11 16 mph 999.2mb 44f 43f
5:50 14ft 11s 8s 13 16 mph 999.4mb 44f 43f
4:50 13ft 12s 8s 16 20 mph 999.3mb 44f 43f
3:50 13ft 10s 8s 18 20 mph 1000.3mb 44f 43f
2:50 14ft 10s 8s 22 27 mph 1000.9mb 44f 42f
1:50 12ft 11s 8s 22 29 mph 1002mb 44f 42f
12:50 14ft 12s 8s 20 25 mph 1003mb 44f 42f
11:50 14ft 11s 8s 20 25 mph 1003.7mb 44f 42f
10:50 13.5ft 11s 8s 20 25 mph 1004.7mb 44f 42f
9:50 15ft 10s 8s 18 25 mph 1005.6mb 44f 42f
8:50 14ft 12s 8s 13 18 mph 1007.2mb 44f 41f
7:50 16.5ft 10s 8s 11 16 mph 1007.9mb 44f 41f
6:50 17.5ft 10s 9s 7 9 mph 1008.6mb 44f 41f
5:50 19.5ft 10s 9s 4 7 mph 1008.9mb 44f 41f
4:50 18.5ft 11s 9s 7 11 mph 1008.7mb 44f 41f
3:50 17.5ft 11s 9s 7 9 mph 1008.8mb 44f 41f
2:50 19.5ft 10s 9s 11 13 mph 1008.5mb 44f 41f
1:50 19.5ft 10s 9s 13 16 mph 1008.3mb 44f 41f
12:50 17.5ft 13s 8s 16 20 mph 1007.9mb 44f 41f
sam. 12/27 11:50 16ft 13s 8s 20 27 mph 1007.7mb 44f 42f
10:50 18.5ft 9s 8s 25 27 mph 1007.7mb 44f 43f
9:50 18.5ft 9s 8s 29 36 mph 1008.5mb 44f 42f
8:50 19ft 8s 8s 34 40 mph 1010.2mb 44f 40f
7:50 16.5ft 13s 7s 34 40 mph 1011.3mb 44f 40f
6:50 17.5ft 8s 7s 36 43 mph 1011.8mb 44f 41f
5:50 17.5ft 14s 8s 36 43 mph 1012.3mb 44f 41f
4:50 16.5ft 13s 7s 34 43 mph 1013.3mb 44f 42f
3:50 16ft 14s 7s 31 40 mph 1014.4mb 44f 42f
2:50 14ft 12s 7s 34 40 mph 1015.2mb 44f 42f
1:50 14ft 13s 7s 31 38 mph 1016.1mb 44f 42f
12:50 14ft 14s 7s 31 38 mph 1016.9mb 44f 41f
11:50 14.5ft 14s 7s 29 34 mph 1018.2mb 44f 41f
10:50 16.5ft 14s 8s 27 34 mph 1019.4mb 44f 41f
9:50 15ft 11s 8s 27 34 mph 1020.8mb 44f 41f
8:50 15.5ft 14s 8s 25 29 mph 1021.2mb 44f 41f
7:50 14ft 14s 8s 22 27 mph 1021.5mb 44f 41f
6:50 14ft 14s 8s 25 29 mph 1021.5mb 44f 41f
5:50 14ft 13s 8s 22 27 mph 1021.4mb 44f 41f
4:50 14ft 14s 8s 25 29 mph 1021.3mb 44f 41f
3:50 14.5ft 15s 8s 22 29 mph 1021.4mb 44f 42f
2:50 13ft 11s 8s 22 27 mph 1021.2mb 44f 42f
1:50 14ft 15s 8s 25 29 mph 1020.9mb 44f 41f
12:50 14ft 15s 8s 27 29 mph 1021.1mb 44f 41f
ven. 12/26 11:50 14.5ft 14s 8s 25 29 mph 1020.5mb 44f 41f
10:50 16.5ft 16s 9s 25 29 mph 1021.5mb 44f 42f
9:50 15ft 14s 9s 22 27 mph 1022.1mb 44f 42f
8:50 17ft 15s 9s 22 27 mph 1022.2mb 44f 41f
7:50 16.5ft 12s 9s 20 27 mph 1021.6mb 44f 41f
6:50 17ft 14s 9s 22 27 mph 1021.4mb 44f 41f
5:50 16.5ft 13s 9s 22 27 mph 1020.7mb 44f 41f
4:50 17ft 14s 9s 22 29 mph 1020.4mb 44f 41f
3:50 15.5ft 15s 9s 20 25 mph 1019.8mb 44f 42f
2:50 15ft 14s 8s 22 27 mph 1019.4mb 44f 42f
1:50 16.5ft 13s 9s 22 27 mph 1018.9mb 44f 42f
12:50 16ft 12s 8s 27 34 mph 1018.5mb 44f 42f
11:50 15ft 14s 8s 25 31 mph 1017.5mb 44f 42f
10:50 15ft 14s 8s 25 29 mph 1017mb 44f 42f
9:50 15.5ft 13s 8s 25 29 mph 1016.8mb 44f 41f
8:50 15.5ft 14s 8s 25 31 mph 1016.2mb 44f 41f
7:50 18ft 14s 9s 25 31 mph 1015.6mb 44f 42f
6:50 19ft 14s 9s 27 34 mph 1015.2mb 44f 42f
5:50 19.5ft 14s 9s 25 34 mph 1014.7mb 44f 42f
4:50 17ft 14s 9s 27 31 mph 1014mb 44f 41f
3:50 19ft 14s 9s 27 36 mph 1013.7mb 44f 42f
2:50 18.5ft 13s 9s 27 34 mph 1013.1mb 44f 42f
1:50 19.5ft 15s 9s 27 34 mph 1012.1mb 44f 42f
12:50 17ft 15s 9s 29 34 mph 1011.7mb 44f 42f
jeu. 12/25 11:50 18.5ft 14s 9s 27 36 mph 1011.4mb 44f 41f
10:50 18.5ft 15s 9s 27 34 mph 1011.2mb 44f 41f
9:50 16.5ft 13s 9s 27 34 mph 1010.8mb 44f 40f
8:50 20ft 11s 9s 27 34 mph 1010.9mb 44f 39f
7:50 19.5ft 12s 9s 27 34 mph 1010.3mb 44f 40f
6:50 17ft 11s 8s 29 36 mph 1009.4mb 44f 41f
5:50 19.5ft 11s 9s 27 38 mph 1008.7mb 44f 40f
4:50 20.5ft 15s 9s 27 36 mph 1007.7mb 44f 41f
3:50 20.5ft 14s 9s 27 31 mph 1006.9mb 44f 41f
2:50 21.5ft 14s 9s 20 29 mph 1006.3mb 44f 40f
1:50 19.5ft 12s 9s 25 31 mph 1006.5mb 44f 40f
12:50 18.5ft 12s 9s 25 31 mph 1006.2mb 44f 39f
11:50 18.5ft 11s 9s 29 36 mph 1005.8mb 44f 41f
10:50 19ft 13s 9s 27 34 mph 1005.8mb 44f 41f